createdAt,value
2022-11-14T00:01:41.385Z,31.13
2022-11-14T00:07:01.652Z,32.80
2022-11-14T00:12:22.026Z,32.10
2022-11-14T00:17:41.970Z,29.52
2022-11-14T00:23:02.124Z,29.60
2022-11-14T00:28:22.087Z,30.52
2022-11-14T00:33:42.385Z,27.52
2022-11-14T00:39:03.959Z,28.25
2022-11-14T00:44:24.872Z,27.90
2022-11-14T00:49:45.012Z,31.83
2022-11-14T00:55:06.120Z,36.80
2022-11-14T01:00:26.061Z,36.85
2022-11-14T01:05:49.258Z,33.85
2022-11-14T01:11:13.425Z,36.92
2022-11-14T01:16:35.836Z,34.05
2022-11-14T01:21:56.433Z,32.33
2022-11-14T01:27:16.495Z,36.65
2022-11-14T01:32:36.768Z,33.70
2022-11-14T01:37:56.718Z,36.50
2022-11-14T01:43:16.844Z,35.53
2022-11-14T01:48:45.994Z,35.78
2022-11-14T01:54:11.643Z,38.85
2022-11-14T01:59:36.915Z,36.20
2022-11-14T02:05:03.178Z,38.80
2022-11-14T02:10:23.519Z,37.47
2022-11-14T02:15:44.289Z,41.50
2022-11-14T02:21:04.848Z,41.22
2022-11-14T02:26:25.298Z,37.30
2022-11-14T02:31:45.537Z,34.80
2022-11-14T02:37:06.460Z,36.40
2022-11-14T02:42:26.584Z,34.80
2022-11-14T02:47:46.812Z,32.65
2022-11-14T02:53:07.130Z,32.50
2022-11-14T02:58:27.559Z,29.45
2022-11-14T03:03:48.183Z,30.05
2022-11-14T03:09:08.509Z,32.45
2022-11-14T03:14:31.364Z,32.45
2022-11-14T03:19:51.596Z,31.88
2022-11-14T03:25:12.079Z,35.13
2022-11-14T03:30:32.846Z,34.47
2022-11-14T03:35:53.010Z,34.42
2022-11-14T03:41:12.900Z,35.50
2022-11-14T03:46:33.477Z,35.47
2022-11-14T03:51:53.765Z,35.03
2022-11-14T03:57:13.870Z,41.22
2022-11-14T04:02:34.090Z,39.38
2022-11-14T04:07:54.148Z,40.20
2022-11-14T04:13:14.284Z,42.53
2022-11-14T04:18:34.302Z,43.20
2022-11-14T04:23:54.633Z,42.80
2022-11-14T04:29:14.958Z,43.83
2022-11-14T04:34:35.220Z,40.53
2022-11-14T04:39:58.793Z,42.47
2022-11-14T04:45:18.957Z,42.60
2022-11-14T04:50:39.388Z,37.17
2022-11-14T04:55:59.774Z,39.47
2022-11-14T05:01:20.252Z,38.88
2022-11-14T05:06:40.880Z,39.03
2022-11-14T05:12:01.101Z,41.05
2022-11-14T05:17:21.372Z,40.58
2022-11-14T05:22:45.309Z,41.03
2022-11-14T05:28:06.465Z,42.63
2022-11-14T05:33:26.816Z,41.22
2022-11-14T05:38:47.421Z,41.95
2022-11-14T05:44:07.998Z,42.03
2022-11-14T05:49:28.490Z,42.25
2022-11-14T05:54:48.762Z,41.70
2022-11-14T06:00:10.100Z,42.42
2022-11-14T06:05:30.505Z,42.97
2022-11-14T06:10:50.489Z,40.58
2022-11-14T06:16:14.165Z,40.72
2022-11-14T06:21:34.539Z,40.83
2022-11-14T06:26:54.561Z,42.85
2022-11-14T06:32:14.853Z,41.63
2022-11-14T06:37:38.091Z,40.78
2022-11-14T06:42:58.369Z,39.33
2022-11-14T06:48:19.007Z,35.35
2022-11-14T06:53:40.199Z,39.95
2022-11-14T06:59:00.459Z,41.40
2022-11-14T07:04:20.676Z,38.22
2022-11-14T07:09:40.882Z,39.65
2022-11-14T07:15:01.325Z,41.15
2022-11-14T07:20:22.176Z,40.67
2022-11-14T07:25:42.481Z,37.13
2022-11-14T07:31:03.956Z,37.47
2022-11-14T07:36:24.445Z,37.30
2022-11-14T07:41:45.094Z,37.22
2022-11-14T07:47:05.125Z,33.70
2022-11-14T07:52:25.716Z,35.42
2022-11-14T07:57:49.349Z,32.55
2022-11-14T08:03:10.624Z,35.63
2022-11-14T08:08:31.287Z,33.00
2022-11-14T08:13:51.932Z,33.72
2022-11-14T08:19:11.913Z,31.95
2022-11-14T08:24:32.204Z,31.98
2022-11-14T08:29:52.202Z,32.08
2022-11-14T08:35:12.541Z,30.75
2022-11-14T08:40:33.309Z,28.55
2022-11-14T08:45:59.875Z,29.45
2022-11-14T08:51:21.916Z,28.92
2022-11-14T08:56:42.673Z,29.85
2022-11-14T09:02:03.189Z,30.40
2022-11-14T09:07:23.307Z,29.23
2022-11-14T09:12:43.489Z,30.08
2022-11-14T09:18:03.824Z,30.75
2022-11-14T09:23:25.582Z,29.42
2022-11-14T09:28:45.887Z,29.58
2022-11-14T09:34:06.260Z,28.50
2022-11-14T09:39:26.076Z,28.35
2022-11-14T09:44:57.721Z,27.33
2022-11-14T09:50:26.486Z,28.63
2022-11-14T09:55:46.897Z,27.83
2022-11-14T10:01:12.913Z,27.63
2022-11-14T10:06:48.593Z,28.00
2022-11-14T10:12:22.242Z,27.67
2022-11-14T10:18:02.441Z,26.77
2022-11-14T10:23:28.561Z,26.65
2022-11-14T10:28:56.645Z,25.70
2022-11-14T10:34:44.815Z,27.10
2022-11-14T10:40:18.005Z,26.75
2022-11-14T10:45:47.019Z,28.30
2022-11-14T10:51:19.203Z,28.35
2022-11-14T10:56:54.126Z,29.48
2022-11-14T11:02:14.805Z,28.25
2022-11-14T11:08:21.425Z,28.70
2022-11-14T11:13:56.644Z,29.02
2022-11-14T11:19:27.295Z,28.20
2022-11-14T11:24:47.662Z,29.50
2022-11-14T11:30:25.427Z,27.38
2022-11-14T11:35:48.292Z,27.02
2022-11-14T11:41:25.789Z,28.88
2022-11-14T11:47:01.190Z,27.33
2022-11-14T11:52:43.214Z,26.92
2022-11-14T11:58:27.014Z,27.50
2022-11-14T12:03:50.771Z,27.20
2022-11-14T12:09:55.746Z,27.27
2022-11-14T12:15:40.325Z,28.25
2022-11-14T12:21:09.984Z,28.30
2022-11-14T12:32:07.896Z,27.05
2022-11-14T12:37:38.135Z,27.23
2022-11-14T12:43:00.505Z,28.10
2022-11-14T12:48:26.398Z,26.92
2022-11-14T12:53:46.991Z,29.25
2022-11-14T12:59:13.831Z,27.95
2022-11-14T13:04:43.032Z,27.02
2022-11-14T13:10:14.728Z,27.77
2022-11-14T13:16:06.373Z,29.58
2022-11-14T13:21:47.623Z,28.48
2022-11-14T13:28:05.435Z,28.90
2022-11-14T13:33:49.594Z,29.55
2022-11-14T13:39:09.933Z,31.48
2022-11-14T13:44:55.050Z,31.33
2022-11-14T13:50:19.025Z,29.55
2022-11-14T13:56:07.419Z,32.72
2022-11-14T14:01:39.989Z,33.35
2022-11-14T14:07:11.718Z,32.45
2022-11-14T14:12:57.327Z,35.20
2022-11-14T14:18:30.306Z,35.38
2022-11-14T14:24:16.578Z,36.25
2022-11-14T14:29:36.658Z,37.67
2022-11-14T14:34:58.689Z,36.53
2022-11-14T14:40:29.256Z,37.67
2022-11-14T14:45:53.801Z,40.83
2022-11-14T14:51:14.656Z,43.53
2022-11-14T14:56:35.322Z,43.83
2022-11-14T15:01:57.531Z,44.55
2022-11-14T15:07:21.402Z,44.25
2022-11-14T15:12:43.236Z,44.15
2022-11-14T15:18:07.491Z,46.03
2022-11-14T15:23:30.744Z,44.17
2022-11-14T15:28:50.993Z,46.17
2022-11-14T15:34:25.901Z,45.20
2022-11-14T15:39:47.470Z,44.85
2022-11-14T15:45:24.128Z,44.58
2022-11-14T15:50:50.317Z,44.05
2022-11-14T15:56:14.229Z,45.42
2022-11-14T16:01:34.779Z,46.42
2022-11-14T16:06:55.003Z,45.78
2022-11-14T16:12:15.802Z,45.30
2022-11-14T16:17:38.094Z,48.00
2022-11-14T16:22:58.149Z,46.95
2022-11-14T16:28:18.005Z,46.40
2022-11-14T16:33:38.288Z,48.15
2022-11-14T16:39:03.225Z,47.47
2022-11-14T16:44:24.854Z,45.40
2022-11-14T16:49:45.582Z,47.17
2022-11-14T16:55:10.530Z,44.20
2022-11-14T17:00:30.681Z,49.00
2022-11-14T17:05:52.183Z,47.22
2022-11-14T17:11:12.533Z,45.83
2022-11-14T17:16:32.698Z,45.95
2022-11-14T17:21:53.101Z,48.70
2022-11-14T17:27:14.060Z,46.80
2022-11-14T17:32:34.488Z,48.70
2022-11-14T17:38:00.067Z,48.30
2022-11-14T17:43:20.725Z,44.17
2022-11-14T17:48:40.852Z,49.22
2022-11-14T17:54:01.026Z,46.40
2022-11-14T17:59:21.765Z,47.05
2022-11-14T18:04:42.036Z,45.47
2022-11-14T18:10:02.279Z,44.70
2022-11-14T18:15:27.590Z,44.42
2022-11-14T18:20:48.505Z,38.38
2022-11-14T18:26:13.388Z,45.42
2022-11-14T18:31:33.472Z,42.20
2022-11-14T18:36:54.192Z,37.90
2022-11-14T18:42:14.765Z,42.45
2022-11-14T18:47:35.359Z,61.40
2022-11-14T18:52:55.774Z,40.67
2022-11-14T18:58:15.638Z,37.92
2022-11-14T19:03:35.964Z,36.38
2022-11-14T19:09:11.125Z,35.35
2022-11-14T19:14:31.997Z,33.00
2022-11-14T19:19:55.411Z,35.65
2022-11-14T19:25:15.632Z,36.67
2022-11-14T19:30:35.720Z,39.50
2022-11-14T19:35:56.509Z,37.13
2022-11-14T19:41:21.626Z,40.28
2022-11-14T19:46:46.061Z,35.85
2022-11-14T19:52:08.374Z,32.83
2022-11-14T19:57:30.947Z,34.08
2022-11-14T20:02:51.275Z,36.67
2022-11-14T20:08:11.556Z,41.20
2022-11-14T20:13:33.893Z,44.53
2022-11-14T20:18:58.877Z,41.90
2022-11-14T20:24:21.460Z,41.30
2022-11-14T20:29:42.244Z,40.05
2022-11-14T20:35:02.455Z,40.97
2022-11-14T20:40:23.100Z,36.08
2022-11-14T20:45:55.155Z,41.83
2022-11-14T20:51:21.164Z,43.28
2022-11-14T20:56:41.661Z,37.42
2022-11-14T21:02:01.927Z,43.40
2022-11-14T21:07:22.574Z,43.88
2022-11-14T21:12:46.956Z,40.33
2022-11-14T21:18:09.398Z,39.80
2022-11-14T21:23:30.328Z,39.45
2022-11-14T21:28:53.870Z,40.08
2022-11-14T21:34:15.524Z,40.15
2022-11-14T21:39:35.833Z,41.88
2022-11-14T21:44:56.245Z,41.70
2022-11-14T21:50:16.654Z,40.58
2022-11-14T21:55:37.149Z,41.42
2022-11-14T22:01:09.550Z,41.03
2022-11-14T22:06:29.870Z,37.05
2022-11-14T22:11:50.232Z,39.45
2022-11-14T22:17:10.333Z,39.03
2022-11-14T22:22:30.553Z,36.30
2022-11-14T22:27:53.422Z,34.67
2022-11-14T22:33:13.570Z,33.60
2022-11-14T22:38:35.254Z,32.25
2022-11-14T22:43:56.109Z,37.45
2022-11-14T22:49:20.639Z,37.90
2022-11-14T22:54:42.243Z,39.53
2022-11-14T23:00:03.814Z,38.90
2022-11-14T23:05:24.069Z,37.90
2022-11-14T23:10:45.442Z,40.88
2022-11-14T23:16:08.920Z,40.53
2022-11-14T23:21:32.237Z,42.03
2022-11-14T23:26:53.637Z,41.92
2022-11-14T23:32:13.916Z,42.42
2022-11-14T23:37:34.039Z,40.42
2022-11-14T23:42:54.144Z,41.88
2022-11-14T23:48:18.947Z,39.90
2022-11-14T23:53:39.084Z,40.22
2022-11-14T23:58:59.360Z,43.72
